»·PEaware :: N903DB KIFP-KGCN

N903DB :: KIFP-KGCN

FLIGHT INFORMATION

Flight Status: Arrived
Operator: Privately registered:
United States
More flights under this callsign
Pilot: Drew L. (13237)
Aircraft: SOCATA TBM-900
(TBM9)
More flights by this aircraft type
Origin: KIFP Laughlin/Bullhead Intl
United States
Destination: KGCN Grand Canyon Natl Park
United States
More flights between these airports :: More routes between these airports
Route: DCT
File this flight plan on PilotEdge
Remarks: ROGER
Altitude:
(Current/Filed)
17,500ft
Speed:
(Current/Filed)
0kts
Departed: 22-Oct-18 09:18 PM
Arrived: 22-Oct-18 09:57 PM
Distance/Time
Traveled:
128nm/0:38
Distance/Time
To Go:
Arrived

Flight Plot

Page will automatically refresh every two minutes.

Flight plan parsing failed; only flown route is shown


Map Options




Map Legend


Flown Route
Filed Route
Departure Airport
Arrival Airport
Navaid (VOR, NDB)
Fix

Horizontal Profiles

Position Reports

Time Latitude Longitude Heading Altitude Ground
Speed
22-Oct-18 21:14 35.160448 -114.556389 82 698ft 0kts
22-Oct-18 21:15 35.160448 -114.556389 82 698ft 0kts
22-Oct-18 21:16 35.160448 -114.556389 82 698ft 0kts
22-Oct-18 21:17 35.159362 -114.558203 211 698ft 15kts
22-Oct-18 21:18 35.149757 -114.557554 176 698ft 36kts
22-Oct-18 21:19 35.147809 -114.558829 355 698ft 20kts
22-Oct-18 21:20 35.178825 -114.560098 359 2371ft 132kts
22-Oct-18 21:21 35.214767 -114.554944 9 4919ft 137kts
22-Oct-18 21:22 35.232859 -114.513998 71 7367ft 140kts
22-Oct-18 21:23 35.246949 -114.468215 70 9675ft 150kts
22-Oct-18 21:24 35.261930 -114.419534 70 11786ft 158kts
22-Oct-18 21:25 35.277993 -114.367435 70 13570ft 173kts
22-Oct-18 21:26 35.295724 -114.312176 71 15233ft 181kts
22-Oct-18 21:27 35.315012 -114.253997 71 16933ft 191kts
22-Oct-18 21:28 35.337473 -114.186299 71 17599ft 249kts
22-Oct-18 21:29 35.364614 -114.101864 71 17578ft 276kts
22-Oct-18 21:30 35.392859 -114.013471 71 17573ft 282kts
22-Oct-18 21:31 35.421560 -113.923593 70 17573ft 283kts
22-Oct-18 21:32 35.450192 -113.833999 70 17573ft 283kts
22-Oct-18 21:33 35.478953 -113.744037 70 17573ft 283kts
22-Oct-18 21:34 35.507717 -113.654165 70 17573ft 284kts
22-Oct-18 21:35 35.536467 -113.564421 70 17573ft 284kts
22-Oct-18 21:36 35.565085 -113.475090 70 17574ft 284kts
22-Oct-18 21:37 35.593950 -113.385024 70 17574ft 284kts
22-Oct-18 21:38 35.617209 -113.312550 70 17573ft 284kts
22-Oct-18 21:39 35.634824 -113.257734 70 17578ft 283kts
22-Oct-18 21:40 35.663315 -113.169181 70 17626ft 283kts
22-Oct-18 21:41 35.691885 -113.080507 70 17674ft 283kts
22-Oct-18 21:42 35.720858 -112.990634 70 17705ft 284kts
22-Oct-18 21:43 35.748859 -112.904026 70 17535ft 248kts
22-Oct-18 21:44 35.774138 -112.825855 70 16219ft 245kts
22-Oct-18 21:45 35.798535 -112.748822 70 14748ft 239kts
22-Oct-18 21:46 35.821185 -112.677046 70 13918ft 209kts
22-Oct-18 21:47 35.840448 -112.616056 70 12973ft 205kts
22-Oct-18 21:48 35.860700 -112.551307 70 12004ft 201kts
22-Oct-18 21:49 35.880162 -112.487655 70 10997ft 194kts
22-Oct-18 21:50 35.872533 -112.427708 120 9333ft 189kts
22-Oct-18 21:51 35.883722 -112.371015 52 7888ft 191kts
22-Oct-18 21:52 35.914731 -112.321719 50 7499ft 179kts
22-Oct-18 21:53 35.927591 -112.268595 90 7490ft 168kts
22-Oct-18 21:54 35.933633 -112.223723 41 7494ft 163kts
22-Oct-18 21:55 35.972337 -112.179978 40 7490ft 164kts
22-Oct-18 21:56 36.001097 -112.142022 82 7465ft 151kts
22-Oct-18 21:57 35.977504 -112.121625 204 7164ft 119kts
22-Oct-18 21:58 35.954137 -112.145068 219 6603ft 51kts
22-Oct-18 21:59 35.951701 -112.146047 106 6603ft 7kts
22-Oct-18 22:00 35.959233 -112.137885 39 6603ft 42kts
22-Oct-18 22:01 35.960103 -112.135901 192 6603ft 3kts
22-Oct-18 22:02 35.960046 -112.135937 223 6603ft 0kts
22-Oct-18 22:03 35.960046 -112.135937 223 6603ft 0kts
22-Oct-18 22:04 35.960046 -112.135937 223 6603ft 0kts
22-Oct-18 22:05 35.960046 -112.135937 223 6603ft 0kts

Navigation Log

Ident Type
Flight plan parsing failed, navigation log unavailable